Time;durP1;ratioP1;P1;durP2;ratioP2;P2;SDS_P1;SDS_P2;PMS_P1;PMS_P2;Temp;Humidity;BMP_temperature;BMP_pressure;BME280_temperature;BME280_humidity;BME280_pressure;Samples;Min_cycle;Max_cycle;Signal;HPM_P1;HPM_P2
2021/06/22 00:00:12;;;;;;;10.90;4.50;;;;;;;13.32;84.41;101741.59;5049189;28;20126;-52
2021/06/22 00:02:40;;;;;;;9.10;4.43;;;;;;;13.33;84.25;101740.47;5040937;28;20049;-53
2021/06/22 00:05:09;;;;;;;9.32;4.80;;;;;;;13.31;83.85;101737.13;5048713;28;20523;-51
2021/06/22 00:07:37;;;;;;;9.60;5.18;;;;;;;13.31;83.48;101745.53;5040607;28;20049;-54
2021/06/22 00:10:05;;;;;;;9.15;4.95;;;;;;;13.31;83.47;101739.91;5048691;28;20076;-53
2021/06/22 00:12:35;;;;;;;12.07;6.32;;;;;;;13.31;83.34;101742.72;5042027;28;20132;-53
2021/06/22 00:15:08;;;;;;;10.32;5.55;;;;;;;13.29;83.14;101742.19;5048411;28;20501;-53
2021/06/22 00:17:36;;;;;;;10.52;5.72;;;;;;;13.31;83.15;101728.72;5042099;28;20053;-51
2021/06/22 00:20:05;;;;;;;8.75;5.63;;;;;;;13.30;82.92;101734.59;5046958;28;20521;-55
2021/06/22 00:22:33;;;;;;;11.85;5.78;;;;;;;13.31;82.88;101730.69;5044254;28;20083;-51
2021/06/22 00:25:01;;;;;;;12.43;5.82;;;;;;;13.32;82.71;101732.34;5045411;28;20045;-49
2021/06/22 00:27:29;;;;;;;10.60;6.00;;;;;;;13.30;82.88;101727.03;5044815;28;20049;-53
2021/06/22 00:29:58;;;;;;;10.98;6.35;;;;;;;13.30;82.92;101729.00;5046938;28;20051;-50
2021/06/22 00:32:26;;;;;;;12.48;6.55;;;;;;;13.29;82.81;101730.97;5044059;28;20417;-52
2021/06/22 00:34:54;;;;;;;12.95;6.15;;;;;;;13.28;83.05;101734.91;5028086;28;20146;-52
2021/06/22 00:37:22;;;;;;;15.63;6.63;;;;;;;13.27;82.62;101729.59;5044965;28;20131;-53
2021/06/22 00:39:50;;;;;;;9.23;5.85;;;;;;;13.27;82.72;101744.44;5044414;28;20056;-55
2021/06/22 00:42:18;;;;;;;15.90;7.55;;;;;;;13.27;82.79;101743.59;5045941;28;20049;-53
2021/06/22 00:44:47;;;;;;;11.95;7.22;;;;;;;13.26;82.84;101742.78;5042908;28;20611;-50
2021/06/22 00:47:17;;;;;;;15.13;8.10;;;;;;;13.22;82.83;101741.69;5029295;28;20079;-51
2021/06/22 00:49:47;;;;;;;16.33;8.32;;;;;;;13.20;82.67;101740.31;5023636;28;20049;-52
2021/06/22 00:52:15;;;;;;;13.68;7.25;;;;;;;13.17;82.89;101743.72;5050325;28;20068;-56
2021/06/22 00:54:44;;;;;;;13.45;8.02;;;;;;;13.14;83.03;101745.13;5029839;28;20046;-50
2021/06/22 00:57:15;;;;;;;13.32;8.43;;;;;;;13.08;83.12;101751.88;5047980;28;20123;-50
2021/06/22 00:59:46;;;;;;;18.75;8.77;;;;;;;13.02;83.28;101753.88;5021652;28;20052;-54
2021/06/22 01:02:14;;;;;;;15.43;8.43;;;;;;;13.00;83.62;101750.53;5047905;28;20131;-52
2021/06/22 01:04:44;;;;;;;13.85;8.50;;;;;;;12.95;83.62;101752.56;5039554;28;20041;-53
2021/06/22 01:07:34;;;;;;;14.95;9.50;;;;;;;12.88;84.01;101752.91;5047114;28;20049;-50
2021/06/22 01:10:05;;;;;;;16.88;9.88;;;;;;;12.85;83.74;101759.09;5021952;28;20045;-48
2021/06/22 01:12:45;;;;;;;15.48;9.52;;;;;;;12.81;84.07;101754.34;5048002;28;20053;-49
2021/06/22 01:15:15;;;;;;;16.83;10.23;;;;;;;12.77;84.08;101754.13;5038861;28;20056;-49
2021/06/22 01:17:43;;;;;;;16.90;9.55;;;;;;;12.75;84.46;101761.97;5047508;28;20049;-50
2021/06/22 01:20:15;;;;;;;14.57;8.70;;;;;;;12.69;84.47;101755.56;5039293;28;20034;-54
2021/06/22 01:22:47;;;;;;;17.90;10.07;;;;;;;12.63;84.50;101759.53;5047600;28;20555;-52
2021/06/22 01:25:15;;;;;;;16.27;11.00;;;;;;;12.57;84.66;101769.13;5039210;28;20049;-50
2021/06/22 01:27:44;;;;;;;14.88;11.15;;;;;;;12.56;84.70;101761.00;5046593;28;20037;-48
2021/06/22 01:30:13;;;;;;;19.23;11.27;;;;;;;12.53;84.80;101755.97;5039896;28;20564;-51
2021/06/22 01:32:49;;;;;;;18.77;10.73;;;;;;;12.49;84.91;101764.13;5009194;28;20456;-50
2021/06/22 01:35:17;;;;;;;16.98;11.98;;;;;;;12.48;84.71;101770.00;5022078;28;20047;-50
2021/06/22 01:37:54;;;;;;;19.75;11.95;;;;;;;12.45;84.72;101770.56;5028280;28;20053;-50
2021/06/22 01:40:25;;;;;;;15.75;12.32;;;;;;;12.42;84.85;101760.78;5041040;28;20854;-54
2021/06/22 01:42:58;;;;;;;17.17;12.73;;;;;;;12.41;85.08;101759.97;5045067;28;20469;-53
2021/06/22 01:45:26;;;;;;;17.88;12.52;;;;;;;12.40;85.02;101768.63;5042328;28;20419;-49
2021/06/22 01:47:55;;;;;;;15.13;10.85;;;;;;;12.40;85.06;101766.69;5044348;28;20172;-50
2021/06/22 01:50:23;;;;;;;15.55;10.70;;;;;;;12.42;84.84;101767.22;5024370;28;20137;-54
2021/06/22 01:52:52;;;;;;;18.08;11.85;;;;;;;12.46;84.92;101766.66;5045033;28;20049;-53
2021/06/22 01:55:38;;;;;;;19.55;12.10;;;;;;;12.48;84.73;101765.25;5031816;28;20098;-48
2021/06/22 01:58:10;;;;;;;17.63;11.52;;;;;;;12.49;84.74;101766.09;5039255;28;20057;-51
2021/06/22 02:01:01;;;;;;;18.05;11.70;;;;;;;12.49;84.68;101768.88;5033671;28;20037;-53
2021/06/22 02:03:39;;;;;;;16.38;11.45;;;;;;;12.48;84.72;101764.41;5018518;28;20136;-49
2021/06/22 02:06:07;;;;;;;19.02;12.27;;;;;;;12.47;84.96;101766.38;5041636;28;20126;-52
2021/06/22 02:08:41;;;;;;;;;;;;;;;12.36;84.38;101774.00;5021021;28;20044;-51
2021/06/22 02:11:08;;;;;;;17.17;12.63;;;;;;;12.32;85.22;101772.91;5022743;28;19921;-51
2021/06/22 02:13:50;;;;;;;20.02;13.15;;;;;;;12.34;85.07;101776.25;5038045;28;20039;-53
2021/06/22 02:16:22;;;;;;;18.30;12.07;;;;;;;12.32;84.91;101769.25;5040573;28;20040;-49
2021/06/22 02:18:54;;;;;;;13.90;11.15;;;;;;;12.29;84.76;101770.69;5023148;28;20459;-52
2021/06/22 02:21:24;;;;;;;18.77;11.93;;;;;;;12.28;84.86;101776.56;5023045;28;20131;-51
2021/06/22 02:23:54;;;;;;;18.10;11.43;;;;;;;12.25;84.77;101785.53;5018577;28;20041;-53
2021/06/22 02:26:25;;;;;;;16.60;10.85;;;;;;;12.22;84.67;101794.50;5040134;28;20049;-50
2021/06/22 02:28:54;;;;;;;22.92;11.95;;;;;;;12.21;84.63;101798.41;5019032;28;20094;-48
2021/06/22 02:31:23;;;;;;;17.25;11.57;;;;;;;12.18;84.60;101791.47;5024109;28;20132;-51
2021/06/22 02:33:54;;;;;;;19.20;11.98;;;;;;;12.16;84.69;101795.66;5044229;28;20068;-51
2021/06/22 02:36:27;;;;;;;15.93;10.83;;;;;;;12.13;84.71;101799.88;5042350;28;20144;-53
2021/06/22 02:38:56;;;;;;;18.75;11.88;;;;;;;12.12;84.73;101801.00;5046451;28;20045;-53
2021/06/22 02:41:26;;;;;;;16.58;11.27;;;;;;;12.10;84.33;101799.59;5025742;28;20737;-52
2021/06/22 02:44:02;;;;;;;20.55;10.73;;;;;;;12.05;84.61;101794.84;5043439;28;20053;-50
2021/06/22 02:46:35;;;;;;;15.13;10.75;;;;;;;12.04;84.71;101780.03;5020334;28;20131;-50
2021/06/22 02:49:03;;;;;;;15.25;10.15;;;;;;;12.04;84.60;101776.41;5040087;28;20151;-49
2021/06/22 02:51:34;;;;;;;14.10;9.32;;;;;;;12.00;84.47;101778.91;5023630;28;20037;-52
2021/06/22 02:54:04;;;;;;;18.33;10.18;;;;;;;11.97;84.32;101787.91;5041341;28;20076;-50
2021/06/22 02:56:32;;;;;;;14.73;10.25;;;;;;;11.94;84.20;101804.44;5043742;28;20874;-53
2021/06/22 02:59:03;;;;;;;13.95;9.75;;;;;;;11.91;84.24;101805.81;5020754;28;20060;-50
2021/06/22 03:01:31;;;;;;;17.48;9.90;;;;;;;11.88;84.04;101789.63;5028213;28;20080;-51
2021/06/22 03:04:00;;;;;;;16.20;10.45;;;;;;;11.86;84.05;101791.84;5037456;28;20053;-51
2021/06/22 03:06:28;;;;;;;20.58;11.05;;;;;;;11.85;83.99;101794.94;5027682;28;20056;-51
2021/06/22 03:09:08;;;;;;;16.52;9.93;;;;;;;11.79;84.09;101796.91;5019878;28;20132;-50
2021/06/22 03:11:44;;;;;;;15.20;9.63;;;;;;;11.76;84.02;101794.69;5046200;28;20053;-49
2021/06/22 03:14:18;;;;;;;15.65;9.45;;;;;;;11.73;84.12;101792.44;5036750;28;20057;-53
2021/06/22 03:17:15;;;;;;;14.02;9.82;;;;;;;11.67;83.96;101787.97;5033311;28;20111;-53
2021/06/22 03:19:45;;;;;;;12.35;9.23;;;;;;;11.66;83.75;101783.50;5021377;28;20045;-52
2021/06/22 03:22:16;;;;;;;16.98;9.45;;;;;;;11.66;83.60;101780.69;5028068;28;20150;-54
2021/06/22 03:24:47;;;;;;;17.77;9.90;;;;;;;11.64;83.48;101766.16;5028629;28;20040;-54
2021/06/22 03:27:15;;;;;;;14.73;9.15;;;;;;;11.62;83.19;101774.84;5045331;28;20116;-54
2021/06/22 03:30:04;;;;;;;13.88;8.73;;;;;;;11.58;83.04;101772.91;5030475;28;20055;-53
2021/06/22 03:32:32;;;;;;;14.15;8.60;;;;;;;11.58;82.88;101770.13;5045877;28;20115;-51
2021/06/22 03:35:00;;;;;;;13.35;8.23;;;;;;;11.57;82.60;101765.66;5037148;28;20441;-53
2021/06/22 03:37:28;;;;;;;13.30;8.40;;;;;;;11.54;82.64;101766.22;5045121;28;20144;-52
2021/06/22 03:39:58;;;;;;;14.70;8.27;;;;;;;11.54;82.66;101769.00;5019475;28;20041;-52
2021/06/22 03:42:30;;;;;;;12.80;8.15;;;;;;;11.53;82.57;101770.13;5027554;28;20059;-53
2021/06/22 03:44:58;;;;;;;15.25;8.45;;;;;;;11.55;82.58;101768.72;5037260;28;20049;-54
2021/06/22 03:47:27;;;;;;;14.00;8.10;;;;;;;11.53;82.38;101765.38;5027929;28;20405;-55
2021/06/22 03:49:56;;;;;;;16.17;9.35;;;;;;;11.53;82.36;101775.72;5020509;28;20045;-56
2021/06/22 03:52:23;;;;;;;11.77;8.02;;;;;;;11.54;82.45;101788.56;5013130;28;20041;-54
2021/06/22 03:54:52;;;;;;;16.55;9.02;;;;;;;11.52;82.51;101788.84;5025666;28;20053;-55
2021/06/22 03:57:22;;;;;;;15.45;8.40;;;;;;;11.50;82.33;101793.06;5021513;28;20493;-51
2021/06/22 04:00:14;;;;;;;18.42;8.57;;;;;;;11.48;82.52;101803.66;5046630;28;20079;-52
2021/06/22 04:02:44;;;;;;;14.40;7.88;;;;;;;11.48;82.43;101795.28;5029977;28;20095;-57
2021/06/22 04:05:17;;;;;;;11.82;7.57;;;;;;;11.49;82.56;101788.56;5024509;28;20080;-56
2021/06/22 04:07:56;;;;;;;13.15;7.68;;;;;;;11.49;82.81;101797.81;5020499;28;20226;-52
2021/06/22 04:10:25;;;;;;;16.08;8.32;;;;;;;11.49;82.81;101802.56;5044194;28;20096;-52
2021/06/22 04:12:56;;;;;;;9.27;6.72;;;;;;;11.48;82.72;101806.47;5039183;28;20067;-52
2021/06/22 04:15:25;;;;;;;12.30;7.22;;;;;;;11.49;82.66;101808.13;5043382;28;20056;-54
2021/06/22 04:18:01;;;;;;;15.00;8.90;;;;;;;11.50;82.73;101809.81;5022349;28;20041;-49
2021/06/22 04:20:30;;;;;;;11.98;7.25;;;;;;;11.52;82.79;101815.97;5042806;28;20513;-51
2021/06/22 04:22:58;;;;;;;12.93;7.63;;;;;;;11.53;82.69;101820.44;5027953;28;20041;-53
2021/06/22 04:25:27;;;;;;;12.48;7.82;;;;;;;11.52;82.78;101822.41;5025973;28;20490;-50
2021/06/22 04:28:05;;;;;;;18.35;8.45;;;;;;;11.52;82.57;101825.19;5040248;28;20045;-51
2021/06/22 04:30:35;;;;;;;14.13;8.93;;;;;;;11.54;82.68;101824.91;5041864;28;20099;-52
2021/06/22 04:33:04;;;;;;;14.68;9.10;;;;;;;11.56;82.74;101819.88;5039248;28;20442;-52
2021/06/22 04:35:32;;;;;;;12.57;7.53;;;;;;;11.60;82.87;101824.59;5042186;28;20044;-53
2021/06/22 04:38:01;;;;;;;11.70;8.35;;;;;;;11.67;83.08;101824.31;5038967;28;20061;-55
2021/06/22 04:40:30;;;;;;;13.00;9.00;;;;;;;11.73;83.03;101831.59;5041544;28;20076;-52
2021/06/22 04:42:58;;;;;;;13.00;7.50;;;;;;;11.80;82.95;101837.72;5040995;28;20418;-52
2021/06/22 04:45:27;;;;;;;11.02;7.47;;;;;;;11.85;82.92;101829.34;5039658;28;20049;-54
2021/06/22 04:47:55;;;;;;;13.65;8.77;;;;;;;11.88;82.92;101839.13;5042654;28;20076;-57
2021/06/22 04:50:24;;;;;;;10.77;7.72;;;;;;;11.91;83.06;101839.41;5038128;28;20379;-55
2021/06/22 04:52:52;;;;;;;14.27;9.55;;;;;;;11.94;82.97;101838.81;5045588;28;20103;-51
2021/06/22 04:55:23;;;;;;;12.25;7.72;;;;;;;11.96;83.04;101836.59;5041806;28;20134;-52
2021/06/22 04:57:53;;;;;;;10.55;7.20;;;;;;;12.00;82.92;101839.63;5030116;28;20492;-55
2021/06/22 05:00:21;;;;;;;14.75;8.45;;;;;;;12.04;82.82;101840.75;5047288;28;20111;-54
2021/06/22 05:02:50;;;;;;;14.18;8.50;;;;;;;12.08;82.90;101845.47;5038880;28;20482;-56
2021/06/22 05:05:18;;;;;;;13.15;9.10;;;;;;;12.13;82.91;101843.78;5047528;28;20123;-56
2021/06/22 05:07:47;;;;;;;14.05;8.88;;;;;;;12.19;82.69;101853.84;5039684;28;20041;-51
2021/06/22 05:10:15;;;;;;;12.82;8.25;;;;;;;12.24;82.66;101853.81;5047820;28;20064;-55
2021/06/22 05:12:45;;;;;;;13.82;8.02;;;;;;;12.30;82.50;101858.28;5038639;28;20053;-57
2021/06/22 05:15:20;;;;;;;13.70;8.20;;;;;;;12.35;82.35;101858.25;5027176;28;20049;-56
2021/06/22 05:17:48;;;;;;;12.05;7.45;;;;;;;12.41;82.26;101855.13;5044601;28;20173;-53
2021/06/22 05:20:17;;;;;;;13.80;7.90;;;;;;;12.48;81.93;101856.78;5036330;28;20091;-55
2021/06/22 05:22:45;;;;;;;11.57;7.13;;;;;;;12.54;81.96;101858.44;5041830;28;20041;-54
2021/06/22 05:25:16;;;;;;;14.13;7.90;;;;;;;12.60;81.52;101855.31;5035418;28;20049;-53
2021/06/22 05:27:44;;;;;;;12.27;7.47;;;;;;;12.64;81.43;101856.41;5040849;28;20049;-54
2021/06/22 05:30:13;;;;;;;12.85;7.57;;;;;;;12.70;81.03;101846.88;5040583;28;20042;-51
2021/06/22 05:32:41;;;;;;;11.60;7.32;;;;;;;12.74;80.95;101847.13;5043509;28;20091;-50
2021/06/22 05:35:10;;;;;;;12.70;7.45;;;;;;;12.80;80.54;101845.94;5037174;28;20104;-52
2021/06/22 05:37:39;;;;;;;14.38;7.22;;;;;;;12.85;80.38;101848.72;5040507;28;20049;-55
2021/06/22 05:40:09;;;;;;;10.98;7.70;;;;;;;12.90;80.00;101842.25;5037844;28;20053;-54
2021/06/22 05:42:37;;;;;;;11.80;7.55;;;;;;;12.96;79.83;101843.91;5038642;28;20065;-55
2021/06/22 05:45:06;;;;;;;14.65;6.70;;;;;;;13.03;79.45;101844.38;5036240;28;20033;-56
2021/06/22 05:47:34;;;;;;;12.48;6.80;;;;;;;13.12;79.41;101845.44;5038376;28;20103;-52
2021/06/22 05:50:03;;;;;;;11.15;6.95;;;;;;;13.20;78.72;101850.44;5041135;28;20131;-55
2021/06/22 05:52:31;;;;;;;11.98;7.10;;;;;;;13.32;78.33;101853.72;5047815;28;20448;-56
2021/06/22 05:55:00;;;;;;;12.75;7.72;;;;;;;13.42;78.16;101853.63;5045404;28;20056;-55
2021/06/22 05:57:28;;;;;;;14.73;7.13;;;;;;;13.53;77.60;101853.53;5046955;28;20095;-55
2021/06/22 05:59:56;;;;;;;12.57;7.03;;;;;;;13.66;77.46;101859.28;5029610;28;20076;-56
2021/06/22 06:02:24;;;;;;;12.77;7.57;;;;;;;13.82;77.08;101857.16;5045972;28;20139;-53
2021/06/22 06:04:52;;;;;;;13.45;7.20;;;;;;;14.01;76.48;101866.47;5036387;28;20040;-53
2021/06/22 06:07:21;;;;;;;12.70;6.47;;;;;;;14.18;75.67;101862.41;5045071;28;20076;-51
2021/06/22 06:09:48;;;;;;;11.95;6.50;;;;;;;14.33;74.88;101860.22;5037462;28;20382;-54
2021/06/22 06:12:18;;;;;;;11.57;6.90;;;;;;;14.47;74.31;101857.53;5046372;28;20509;-48
2021/06/22 06:14:46;;;;;;;11.60;6.45;;;;;;;14.63;73.73;101852.53;5038345;28;20057;-54
2021/06/22 06:17:13;;;;;;;9.75;5.88;;;;;;;14.74;72.60;101854.94;5024404;28;20175;-52
2021/06/22 06:19:42;;;;;;;11.18;5.80;;;;;;;14.91;72.29;101867.59;5031653;28;20053;-54
2021/06/22 06:22:09;;;;;;;12.02;5.13;;;;;;;15.07;71.81;101866.22;5044459;28;20084;-53
2021/06/22 06:24:37;;;;;;;13.43;5.60;;;;;;;15.24;71.46;101868.47;5041036;28;20053;-53
2021/06/22 06:27:08;;;;;;;11.82;5.28;;;;;;;15.40;70.98;101864.28;5043288;28;20506;-53
2021/06/22 06:29:46;;;;;;;8.07;4.97;;;;;;;15.54;70.84;101864.34;5042031;28;20069;-52
2021/06/22 06:32:13;;;;;;;8.88;4.22;;;;;;;15.61;70.34;101871.25;5037741;28;20084;-52
2021/06/22 06:34:42;;;;;;;8.63;4.60;;;;;;;15.59;69.76;101873.53;5039860;28;20044;-53
2021/06/22 06:37:10;;;;;;;8.23;4.35;;;;;;;15.50;69.68;101876.19;5036142;28;20110;-55
2021/06/22 06:39:38;;;;;;;8.35;4.30;;;;;;;15.39;69.83;101880.31;5021423;28;20064;-57
2021/06/22 06:42:07;;;;;;;11.05;4.43;;;;;;;15.34;70.21;101877.59;5038000;28;20128;-53
2021/06/22 06:44:35;;;;;;;10.75;4.32;;;;;;;15.34;70.36;101877.59;5037561;28;20122;-57
2021/06/22 06:47:04;;;;;;;10.60;4.75;;;;;;;15.31;70.23;101875.41;5038907;28;20156;-53
2021/06/22 06:49:35;;;;;;;11.27;4.60;;;;;;;15.28;70.20;101878.81;5038072;28;20045;-50
2021/06/22 06:52:04;;;;;;;9.68;5.32;;;;;;;15.38;70.25;101883.47;5047373;28;20044;-55
2021/06/22 06:54:32;;;;;;;10.98;4.85;;;;;;;15.47;69.85;101892.84;5037978;28;20265;-55
2021/06/22 06:57:00;;;;;;;11.38;4.82;;;;;;;15.61;69.90;101892.91;5027300;28;20395;-55
2021/06/22 06:59:28;;;;;;;10.85;5.20;;;;;;;15.83;70.13;101890.28;5036281;28;20099;-57
2021/06/22 07:01:55;;;;;;;11.50;5.32;;;;;;;16.12;70.09;101885.22;5037169;28;20071;-53
2021/06/22 07:04:25;;;;;;;9.57;4.68;;;;;;;16.36;69.02;101892.63;5046170;28;20060;-58
2021/06/22 07:06:54;;;;;;;9.47;5.03;;;;;;;16.43;68.47;101895.84;5036969;28;20068;-57
2021/06/22 07:09:22;;;;;;;12.50;5.32;;;;;;;16.48;68.00;101892.94;5045540;28;20095;-54
2021/06/22 07:11:50;;;;;;;9.65;4.93;;;;;;;16.56;67.56;101892.22;5037346;28;20045;-56
2021/06/22 07:14:18;;;;;;;9.45;4.72;;;;;;;16.59;67.28;101894.38;5045250;28;20057;-56
2021/06/22 07:16:48;;;;;;;7.65;4.60;;;;;;;16.59;66.84;101902.00;5038265;28;20457;-58
2021/06/22 07:19:16;;;;;;;8.13;4.90;;;;;;;16.53;66.95;101904.09;5005637;28;20052;-55
2021/06/22 07:21:46;;;;;;;6.20;4.28;;;;;;;16.49;66.92;101897.41;5041266;28;20052;-56
2021/06/22 07:24:14;;;;;;;10.23;4.55;;;;;;;16.45;66.39;101896.38;5037081;28;20475;-56
2021/06/22 07:26:43;;;;;;;9.07;4.78;;;;;;;16.40;66.85;101899.28;5025243;28;20072;-56
2021/06/22 07:29:11;;;;;;;10.65;4.90;;;;;;;16.39;67.15;101894.81;5042915;28;20065;-57
2021/06/22 07:31:38;;;;;;;11.40;5.45;;;;;;;16.40;67.13;101888.84;5048569;28;20072;-58
2021/06/22 07:34:06;;;;;;;9.20;5.28;;;;;;;16.46;67.60;101893.25;5039566;28;20402;-57
2021/06/22 07:36:34;;;;;;;7.78;4.82;;;;;;;16.76;67.73;101893.78;5042819;28;20067;-56
2021/06/22 07:39:04;;;;;;;10.52;5.30;;;;;;;17.18;67.01;101899.00;5040599;28;20103;-57
2021/06/22 07:41:32;;;;;;;11.40;5.57;;;;;;;17.55;64.95;101894.97;5038781;28;20072;-57
2021/06/22 07:44:00;;;;;;;11.88;5.15;;;;;;;17.88;64.48;101903.19;5046497;28;20444;-59
2021/06/22 07:46:28;;;;;;;8.50;4.53;;;;;;;18.07;62.03;101903.78;5046627;28;20537;-59
2021/06/22 07:48:56;;;;;;;7.90;4.82;;;;;;;18.20;61.18;101902.00;5043426;28;20048;-58
2021/06/22 07:51:24;;;;;;;8.60;4.50;;;;;;;18.32;60.35;101905.06;5048375;28;20045;-59
2021/06/22 07:53:52;;;;;;;8.93;4.78;;;;;;;18.43;60.27;101899.94;5041610;28;20080;-56
2021/06/22 07:56:21;;;;;;;9.00;4.63;;;;;;;18.44;60.29;101895.97;5040733;28;20111;-57
2021/06/22 07:58:50;;;;;;;9.25;4.88;;;;;;;18.38;60.55;101897.28;5046901;28;20157;-56
2021/06/22 08:01:18;;;;;;;10.93;5.28;;;;;;;18.23;60.58;101902.19;5037797;28;20045;-55
2021/06/22 08:03:46;;;;;;;10.00;4.97;;;;;;;18.14;60.58;101898.50;5046774;28;20045;-58
2021/06/22 08:06:14;;;;;;;9.70;4.97;;;;;;;18.09;60.18;101901.47;5037977;28;20046;-57
2021/06/22 08:08:42;;;;;;;11.00;5.53;;;;;;;18.11;60.30;101895.50;5045770;28;20485;-57
2021/06/22 08:11:10;;;;;;;8.80;5.32;;;;;;;18.20;59.57;101902.84;5037954;28;20104;-58
2021/06/22 08:13:39;;;;;;;14.23;5.22;;;;;;;18.22;59.54;101903.34;5027963;28;20103;-57
2021/06/22 08:16:08;;;;;;;11.32;5.43;;;;;;;18.27;58.53;101896.72;5037746;28;20037;-56
2021/06/22 08:18:37;;;;;;;7.88;4.95;;;;;;;18.30;58.82;101906.56;5043762;28;20115;-59
2021/06/22 08:21:06;;;;;;;9.57;5.00;;;;;;;18.36;59.19;101905.25;5039283;28;20045;-55
2021/06/22 08:23:37;;;;;;;10.20;5.90;;;;;;;18.46;59.99;101900.13;5024510;28;20049;-59
2021/06/22 08:26:06;;;;;;;11.30;5.72;;;;;;;18.49;59.49;101896.66;5042374;28;20414;-55
2021/06/22 08:28:34;;;;;;;10.32;5.80;;;;;;;18.34;59.66;101907.56;5044458;28;20449;-58
2021/06/22 08:31:03;;;;;;;8.27;5.38;;;;;;;18.14;59.74;101906.97;5046034;28;20129;-55
2021/06/22 08:33:31;;;;;;;12.95;5.93;;;;;;;18.13;60.04;101893.19;5044316;28;20127;-57
2021/06/22 08:35:59;;;;;;;9.82;5.47;;;;;;;18.30;59.87;101898.06;5045051;28;20053;-53
2021/06/22 08:38:27;;;;;;;13.23;6.20;;;;;;;18.39;59.51;101894.09;5044009;28;20103;-57
2021/06/22 08:40:54;;;;;;;11.38;5.80;;;;;;;18.29;59.18;101910.53;5045036;28;20045;-54
2021/06/22 08:43:22;;;;;;;10.35;6.20;;;;;;;18.18;59.74;101908.00;5033376;28;20053;-56
2021/06/22 08:45:51;;;;;;;11.82;6.00;;;;;;;18.16;60.38;101907.50;5020391;28;20095;-55
2021/06/22 08:48:21;;;;;;;10.35;5.97;;;;;;;18.19;60.08;101918.13;5038633;28;20045;-56
2021/06/22 08:50:49;;;;;;;11.70;6.03;;;;;;;18.14;59.77;101911.81;5043901;28;20044;-50
2021/06/22 08:53:17;;;;;;;10.05;5.95;;;;;;;17.99;59.74;101926.31;5037137;28;20061;-53
2021/06/22 08:55:46;;;;;;;10.60;5.57;;;;;;;17.78;60.00;101923.22;5048385;28;20184;-52
2021/06/22 08:58:16;;;;;;;12.05;5.75;;;;;;;17.58;60.25;101915.25;5029585;28;20080;-52
2021/06/22 09:00:47;;;;;;;10.45;5.95;;;;;;;17.39;61.02;101916.25;5038646;28;20045;-51
2021/06/22 09:03:16;;;;;;;12.68;6.50;;;;;;;17.29;61.62;101921.31;5043007;28;20065;-55
2021/06/22 09:05:48;;;;;;;9.73;6.50;;;;;;;17.19;61.41;101922.38;5044709;28;20107;-54
2021/06/22 09:08:21;;;;;;;13.05;6.45;;;;;;;17.14;62.05;101922.50;5036746;28;20045;-53
2021/06/22 09:10:50;;;;;;;10.25;6.70;;;;;;;17.11;62.16;101915.53;5045458;28;20048;-51
2021/06/22 09:13:19;;;;;;;12.50;6.47;;;;;;;17.06;62.02;101917.63;5036414;28;20159;-56
2021/06/22 09:15:49;;;;;;;8.45;6.18;;;;;;;16.99;62.39;101918.03;5045151;28;20666;-54
2021/06/22 09:18:28;;;;;;;13.48;6.97;;;;;;;16.98;62.51;101918.38;5026159;28;20045;-53
2021/06/22 09:20:59;;;;;;;10.93;6.80;;;;;;;16.94;62.85;101921.00;5045013;28;20048;-56
2021/06/22 09:23:29;;;;;;;9.55;6.43;;;;;;;16.90;62.92;101914.31;5008053;28;20041;-56
2021/06/22 09:25:58;;;;;;;10.93;7.13;;;;;;;16.86;63.07;101925.38;5043174;28;20104;-53
2021/06/22 09:28:29;;;;;;;12.13;6.93;;;;;;;16.87;62.88;101921.41;5037670;28;20049;-55
2021/06/22 09:31:00;;;;;;;9.18;6.57;;;;;;;16.83;62.61;101916.72;5042171;28;20045;-57
2021/06/22 09:33:32;;;;;;;10.30;6.93;;;;;;;16.80;62.63;101920.16;5038175;28;20107;-52
2021/06/22 09:36:04;;;;;;;11.63;6.85;;;;;;;16.82;62.64;101926.31;5041213;28;20057;-50
2021/06/22 09:38:36;;;;;;;11.98;6.32;;;;;;;16.81;62.10;101917.03;5041194;28;20474;-57
2021/06/22 09:41:13;;;;;;;11.05;7.00;;;;;;;16.83;62.48;101930.81;5030347;28;20045;-55
2021/06/22 09:43:44;;;;;;;12.18;7.15;;;;;;;16.84;62.11;101926.84;5039232;28;20103;-53
2021/06/22 09:46:13;;;;;;;11.32;7.45;;;;;;;16.85;62.16;101928.53;5012858;28;20054;-52
2021/06/22 09:48:50;;;;;;;10.52;6.93;;;;;;;16.87;61.86;101929.88;5035374;28;20107;-54
2021/06/22 09:51:22;;;;;;;9.35;6.75;;;;;;;16.85;61.37;101932.19;5040503;28;20136;-55
2021/06/22 09:53:50;;;;;;;11.32;7.00;;;;;;;16.83;61.08;101934.47;5036041;28;20049;-55
2021/06/22 09:56:24;;;;;;;10.70;7.10;;;;;;;16.86;61.16;101936.66;5040592;28;20053;-52
2021/06/22 09:58:52;;;;;;;10.35;6.85;;;;;;;16.90;60.63;101936.03;5045110;28;20057;-56
2021/06/22 10:01:28;;;;;;;8.02;6.55;;;;;;;16.91;59.24;101940.53;5045085;28;20049;-53
2021/06/22 10:03:59;;;;;;;11.60;7.07;;;;;;;16.96;59.74;101943.25;5037008;28;20478;-52
2021/06/22 10:06:42;;;;;;;11.93;7.53;;;;;;;16.99;59.88;101934.97;5041525;28;20049;-51
2021/06/22 10:09:10;;;;;;;10.02;7.60;;;;;;;17.03;59.75;101940.81;5044444;28;20090;-51
2021/06/22 10:11:40;;;;;;;9.90;7.60;;;;;;;17.03;59.44;101937.97;5042626;28;20133;-48
2021/06/22 10:14:11;;;;;;;8.02;6.75;;;;;;;17.05;59.11;101947.81;5043752;28;20048;-51
2021/06/22 10:16:39;;;;;;;12.70;7.05;;;;;;;17.13;58.27;101934.94;5038321;28;20079;-51
2021/06/22 10:19:07;;;;;;;10.40;7.90;;;;;;;17.28;57.96;101933.75;5039540;28;20057;-50
2021/06/22 10:21:36;;;;;;;9.30;6.40;;;;;;;17.43;58.03;101942.66;5019757;28;20049;-50
2021/06/22 10:24:06;;;;;;;9.10;7.13;;;;;;;17.49;56.54;101941.41;5040951;28;20055;-51
2021/06/22 10:26:34;;;;;;;11.45;7.13;;;;;;;17.61;56.37;101948.44;5036369;28;20134;-53
2021/06/22 10:29:03;;;;;;;12.35;6.80;;;;;;;17.82;56.32;101949.63;5042496;28;20037;-51
2021/06/22 10:31:32;;;;;;;8.90;6.60;;;;;;;17.96;56.02;101947.59;5035289;28;20556;-51
2021/06/22 10:34:00;;;;;;;11.00;7.43;;;;;;;17.96;56.45;101944.78;5044121;28;20045;-51
2021/06/22 10:36:31;;;;;;;10.23;7.28;;;;;;;17.83;55.56;101952.16;5034146;28;20108;-50
2021/06/22 10:39:09;;;;;;;7.88;6.63;;;;;;;17.70;55.95;101949.41;5044087;28;20044;-53
2021/06/22 10:41:41;;;;;;;10.77;6.90;;;;;;;17.60;56.77;101955.25;5034484;28;20045;-53
2021/06/22 10:44:24;;;;;;;;;;;;;;;17.38;56.14;101956.09;5043056;28;20063;-51
2021/06/22 10:47:17;;;;;;;8.90;5.30;;;;;;;17.32;57.01;101946.91;5021939;28;19928;-50
2021/06/22 10:49:58;;;;;;;10.27;6.60;;;;;;;17.24;56.71;101950.47;5030848;28;20044;-49
2021/06/22 10:52:49;;;;;;;8.82;6.65;;;;;;;17.37;56.41;101943.97;5044098;28;20131;-51
2021/06/22 10:55:21;;;;;;;8.90;5.80;;;;;;;17.73;57.07;101949.59;5034955;28;20520;-49
2021/06/22 10:58:12;;;;;;;10.05;6.03;;;;;;;18.00;56.26;101934.47;5018969;28;20049;-50
2021/06/22 11:01:17;;;;;;;9.63;6.40;;;;;;;18.25;56.23;101942.25;5035912;28;20049;-51
2021/06/22 11:03:45;;;;;;;7.85;6.05;;;;;;;18.49;56.36;101938.22;4996852;28;20133;-54
2021/06/22 11:06:31;;;;;;;9.60;5.85;;;;;;;18.59;55.20;101943.59;5046890;28;20084;-51
2021/06/22 11:09:20;;;;;;;10.25;6.38;;;;;;;18.52;54.18;101944.06;5033717;28;20072;-52
2021/06/22 11:12:24;;;;;;;8.02;5.43;;;;;;;18.36;54.08;101951.31;5040289;28;20044;-54
2021/06/22 11:15:04;;;;;;;8.02;5.45;;;;;;;18.18;55.24;101947.56;5046872;28;20546;-53
2021/06/22 11:17:57;;;;;;;8.45;5.68;;;;;;;18.14;54.97;101960.66;5038231;28;20212;-53
2021/06/22 11:20:29;;;;;;;8.77;5.03;;;;;;;18.01;56.11;101960.72;5025641;28;20054;-56
2021/06/22 11:23:00;;;;;;;;;;;;;;;17.75;55.94;101963.41;5039343;28;20498;-52
2021/06/22 11:25:47;;;;;;;8.63;4.88;;;;;;;17.70;57.04;101972.81;5047503;28;19921;-54
2021/06/22 11:28:23;;;;;;;8.25;4.72;;;;;;;17.70;57.80;101977.63;5046837;28;20111;-52
2021/06/22 11:31:03;;;;;;;7.30;4.60;;;;;;;17.68;57.90;101971.47;5040592;28;20455;-53
2021/06/22 11:33:54;;;;;;;8.15;4.10;;;;;;;17.70;57.89;101975.66;5049735;28;20051;-52
2021/06/22 11:36:34;;;;;;;7.07;4.00;;;;;;;17.71;57.37;101974.50;4998296;28;20057;-53